Terminal Aerodrome Forecast
Issued by NWS Nashville, TN

Home | Current Version | Previous Version | Text Only | Print | Product List | Glossary On
Versions: 1 2 3 4 5 6 7 8 9 10 11 12 13 14 15 16
000
FTUS44 KOHX 011800 AAA
TAFCSV
TAF AMD
KCSV 011852Z 0119/0218 18005KT 4SM -SHRA OVC004
      TEMPO 0119/0123 2SM BR
     FM020100 18003KT 3SM -SHRA OVC004
     FM020600 30006KT 5SM -SHRA OVC003
     FM021000 36006KT 5SM BR OVC004
      TEMPO 0210/0214 -FZDZ
     FM021400 04007KT 5SM -DZ BR OVC006
      TEMPO 0216/0218 SCT006 BKN035=

USA.gov is the U.S. government's official web portal to all federal, state and local government web resources and services.